Hauptseite
METAR-TAF:

METAR-TAF

Flughäfen :

Flughafen Guilin-Liangjiang

Guilin, China

Breite: 25-20N, Länge: 110-18E, Höhe: 166 m

Beobachtung

Neuester Wetterbericht von vor 58 Minuten, um 21:00 UTC
Wind 2 kt aus unterschiedlichen Richtungen
Temperatur 25°C
Luftfeuchtigkeit 89%
Luftdruck 1004 hPa
Sichtweite 10 km oder mehr
keine Wolken unter 1500 m und keine Kumulonimbus oder Gewitterwolken

METAR: ZGKL 162100Z VRB01MPS CAVOK 25/23 Q1004 NOSIG

Zeit: 05:58 (21:58 UTC)

Prognose

Neuester Wetterbericht von vor 6 Stunden und 55 Minuten, um 15:03 UTC
Gültige Prognose vom 16 um 18 UTC bis 17 um 18 UTC
Wind 6 kt aus Süd/Südost
Sichtweite 10 km oder mehr
Aufgelockert bewölkt in der Höhe von 3300 ft
Aufgelockert bewölkt in der Höhe von 6000 ft

TAF: ZGKL 161503Z 1618/1718 15003MPS 9999 SCT033 SCT060 TX36/1708Z TN25/1622Z

Wetterbeobachtungen und Prognosen von mehr als 4000 Flughäfen (METAR und TAF Bericht).

Die verfügbaren Stationen werden durch gelbe und rote Markierungen auf der Karte dargestellt.

Führen Sie die Maus auf sie, um den Namen der Station zu sehen.

Darauf klicken, um die Beobachtung von Wetterbeobachtungen und Prognosen zu sehen.

Um die Karte zu ändern : klicken Sie auf den grünen Tasten mit einem schwarzen Kreuz Zum Vergrößern, auf den grünen Button mit einem Gedankenstrich zu verkleinern, oder auf die grünen Pfeile für benachbarte Karten.


METAR-TAF: